createdAt,value
2022-10-31T00:00:05.188Z,7.13
2022-10-31T00:02:44.787Z,6.22
2022-10-31T00:05:15.290Z,5.35
2022-10-31T00:07:45.867Z,4.15
2022-10-31T00:10:16.350Z,5.35
2022-10-31T00:12:46.918Z,5.05
2022-10-31T00:15:17.521Z,8.75
2022-10-31T00:17:50.698Z,4.53
2022-10-31T00:20:21.094Z,4.68
2022-10-31T00:22:51.639Z,4.20
2022-10-31T00:25:22.164Z,4.38
2022-10-31T00:27:52.658Z,4.70
2022-10-31T00:30:23.842Z,4.30
2022-10-31T00:32:57.255Z,4.07
2022-10-31T00:35:28.321Z,3.90
2022-10-31T00:37:59.013Z,3.88
2022-10-31T00:40:29.422Z,3.72
2022-10-31T00:43:00.424Z,2.80
2022-10-31T00:45:31.052Z,4.28
2022-10-31T00:48:04.761Z,3.70
2022-10-31T00:50:35.139Z,3.55
2022-10-31T00:53:05.874Z,3.20
2022-10-31T00:55:36.558Z,3.05
2022-10-31T00:58:08.034Z,3.10
2022-10-31T01:00:38.631Z,3.03
2022-10-31T01:03:11.905Z,2.75
2022-10-31T01:05:45.400Z,4.35
2022-10-31T01:08:15.893Z,5.32
2022-10-31T01:10:47.366Z,3.40
2022-10-31T01:13:19.204Z,3.25
2022-10-31T01:15:49.753Z,3.78
2022-10-31T01:18:22.875Z,3.00
2022-10-31T01:21:02.988Z,3.13
2022-10-31T01:23:34.018Z,3.10
2022-10-31T01:26:06.769Z,2.80
2022-10-31T01:28:38.047Z,3.30
2022-10-31T01:31:10.442Z,2.35
2022-10-31T01:33:43.764Z,2.42
2022-10-31T01:36:19.985Z,3.22
2022-10-31T01:38:54.876Z,2.95
2022-10-31T01:41:27.005Z,2.60
2022-10-31T01:43:59.649Z,2.88
2022-10-31T01:46:33.307Z,3.15
2022-10-31T01:49:09.556Z,2.83
2022-10-31T01:51:42.816Z,3.05
2022-10-31T01:54:19.841Z,2.70
2022-10-31T01:56:54.329Z,2.67
2022-10-31T01:59:27.733Z,3.10
2022-10-31T02:01:59.521Z,2.55
2022-10-31T02:04:33.837Z,2.67
2022-10-31T02:07:09.198Z,2.33
2022-10-31T02:12:13.373Z,2.58
2022-10-31T02:14:45.477Z,3.85
2022-10-31T02:17:16.273Z,2.63
2022-10-31T02:19:56.822Z,2.45
2022-10-31T02:22:34.315Z,2.92
2022-10-31T02:25:26.041Z,2.50
2022-10-31T02:28:20.001Z,2.30
2022-10-31T02:31:16.837Z,2.58
2022-10-31T02:33:52.717Z,2.78
2022-10-31T02:36:31.081Z,2.67
2022-10-31T02:39:13.001Z,2.65
2022-10-31T02:41:52.671Z,3.08
2022-10-31T02:44:32.924Z,2.88
2022-10-31T02:47:10.434Z,2.90
2022-10-31T02:49:44.343Z,2.88
2022-10-31T02:52:21.654Z,2.53
2022-10-31T02:54:52.608Z,3.13
2022-10-31T02:57:27.833Z,2.53
2022-10-31T03:00:02.934Z,3.00
2022-10-31T03:02:53.382Z,2.78
2022-10-31T03:05:53.726Z,2.50
2022-10-31T03:08:34.115Z,3.00
2022-10-31T03:11:06.966Z,2.97
2022-10-31T03:13:43.523Z,2.72
2022-10-31T03:16:18.453Z,2.88
2022-10-31T03:18:57.902Z,2.72
2022-10-31T03:21:31.267Z,3.53
2022-10-31T03:24:04.727Z,3.90
2022-10-31T03:26:36.410Z,4.47
2022-10-31T03:29:09.267Z,4.75
2022-10-31T03:31:50.021Z,5.10
2022-10-31T03:34:24.676Z,5.55
2022-10-31T03:37:01.191Z,4.70
2022-10-31T03:39:32.744Z,5.47
2022-10-31T03:42:09.138Z,5.30
2022-10-31T03:44:42.103Z,4.85
2022-10-31T03:47:13.055Z,4.97
2022-10-31T03:49:46.153Z,5.53
2022-10-31T03:52:24.386Z,5.90
2022-10-31T03:55:01.105Z,5.53
2022-10-31T03:57:39.679Z,4.50
2022-10-31T04:00:13.456Z,4.10
2022-10-31T04:02:56.263Z,3.25
2022-10-31T04:05:29.518Z,3.00
2022-10-31T04:08:06.794Z,3.40
2022-10-31T04:10:39.011Z,3.10
2022-10-31T04:13:12.676Z,3.47
2022-10-31T04:15:55.886Z,3.17
2022-10-31T04:18:27.368Z,3.42
2022-10-31T04:21:08.175Z,4.03
2022-10-31T04:23:40.120Z,3.40
2022-10-31T04:26:33.835Z,3.50
2022-10-31T04:29:04.387Z,3.47
2022-10-31T04:31:37.000Z,3.05
2022-10-31T04:34:08.495Z,3.28
2022-10-31T04:36:41.684Z,3.28
2022-10-31T04:39:12.208Z,3.35
2022-10-31T04:41:48.635Z,3.20
2022-10-31T04:44:19.510Z,3.13
2022-10-31T04:46:54.182Z,3.38
2022-10-31T04:49:24.664Z,4.53
2022-10-31T04:51:57.811Z,4.28
2022-10-31T04:54:28.582Z,5.43
2022-10-31T04:57:00.097Z,5.07
2022-10-31T04:59:32.866Z,4.60
2022-10-31T05:02:04.092Z,4.55
2022-10-31T05:04:48.827Z,5.68
2022-10-31T05:07:22.432Z,5.43
2022-10-31T05:09:53.370Z,4.15
2022-10-31T05:12:24.464Z,4.50
2022-10-31T05:15:22.388Z,4.25
2022-10-31T05:18:11.755Z,4.63
2022-10-31T05:21:00.871Z,4.63
2022-10-31T05:23:45.843Z,4.57
2022-10-31T05:26:19.025Z,4.63
2022-10-31T05:28:51.015Z,4.65
2022-10-31T05:31:21.561Z,5.80
2022-10-31T05:33:53.802Z,8.23
2022-10-31T05:36:56.406Z,7.30
2022-10-31T05:39:29.913Z,8.13
2022-10-31T05:42:04.805Z,7.82
2022-10-31T05:44:35.320Z,9.55
2022-10-31T05:47:29.347Z,9.02
2022-10-31T05:49:59.849Z,11.32
2022-10-31T05:52:39.581Z,12.25
2022-10-31T05:55:42.463Z,5.57
2022-10-31T05:58:16.266Z,4.65
2022-10-31T06:00:54.084Z,5.93
2022-10-31T06:03:24.654Z,5.22
2022-10-31T06:06:00.229Z,4.72
2022-10-31T06:08:40.917Z,4.70
2022-10-31T06:11:20.106Z,5.38
2022-10-31T06:14:05.986Z,5.68
2022-10-31T06:16:47.864Z,6.10
2022-10-31T06:19:41.265Z,5.88
2022-10-31T06:22:14.897Z,5.70
2022-10-31T06:24:47.215Z,6.03
2022-10-31T06:27:41.663Z,5.75
2022-10-31T06:30:18.437Z,6.00
2022-10-31T06:32:50.653Z,5.88
2022-10-31T06:35:21.579Z,6.70
2022-10-31T06:37:55.973Z,5.13
2022-10-31T06:40:42.228Z,6.10
2022-10-31T06:43:29.007Z,5.18
2022-10-31T06:46:19.933Z,4.82
2022-10-31T06:49:03.244Z,4.82
2022-10-31T06:51:54.582Z,6.75
2022-10-31T06:54:25.589Z,5.88
2022-10-31T06:56:56.848Z,4.80
2022-10-31T06:59:30.140Z,4.75
2022-10-31T07:02:20.564Z,4.70
2022-10-31T07:04:52.765Z,4.80
2022-10-31T07:07:23.598Z,4.32
2022-10-31T07:09:54.986Z,4.50
2022-10-31T07:12:40.162Z,4.88
2022-10-31T07:15:13.948Z,5.28
2022-10-31T07:17:44.457Z,4.72
2022-10-31T07:20:15.202Z,4.32
2022-10-31T07:22:50.479Z,5.03
2022-10-31T07:25:21.641Z,5.03
2022-10-31T07:28:12.589Z,5.90
2022-10-31T07:30:45.816Z,6.65
2022-10-31T07:33:16.724Z,5.10
2022-10-31T07:36:22.809Z,4.22
2022-10-31T07:38:56.058Z,4.93
2022-10-31T07:41:26.579Z,6.93
2022-10-31T07:43:57.940Z,5.40
2022-10-31T07:46:49.697Z,5.57
2022-10-31T07:49:45.854Z,6.53
2022-10-31T07:52:35.106Z,5.20
2022-10-31T07:55:23.944Z,5.00
2022-10-31T07:58:00.592Z,4.93
2022-10-31T08:00:33.419Z,4.95
2022-10-31T08:03:08.742Z,4.72
2022-10-31T08:06:00.766Z,3.30
2022-10-31T08:09:00.610Z,4.43
2022-10-31T08:11:31.167Z,3.75
2022-10-31T08:14:02.272Z,4.38
2022-10-31T08:16:32.803Z,3.58
2022-10-31T08:19:08.778Z,3.60
2022-10-31T08:21:42.252Z,3.55
2022-10-31T08:24:13.338Z,3.72
2022-10-31T08:26:44.713Z,3.55
2022-10-31T08:29:16.099Z,3.97
2022-10-31T08:31:47.338Z,3.83
2022-10-31T08:34:39.336Z,4.25
2022-10-31T08:37:41.831Z,4.05
2022-10-31T08:40:15.135Z,3.40
2022-10-31T08:42:46.042Z,3.90
2022-10-31T08:45:16.718Z,3.47
2022-10-31T08:47:47.224Z,3.47
2022-10-31T08:50:20.751Z,3.75
2022-10-31T08:53:04.889Z,4.03
2022-10-31T08:55:38.706Z,4.22
2022-10-31T08:58:16.926Z,4.35
2022-10-31T09:00:55.137Z,3.72
2022-10-31T09:03:28.164Z,3.72
2022-10-31T09:06:03.897Z,3.90
2022-10-31T09:08:36.105Z,3.90
2022-10-31T09:11:07.880Z,4.75
2022-10-31T09:13:57.288Z,4.38
2022-10-31T09:16:47.981Z,5.00
2022-10-31T09:19:25.560Z,5.28
2022-10-31T09:21:59.451Z,4.90
2022-10-31T09:24:30.599Z,4.35
2022-10-31T09:27:02.895Z,4.15
2022-10-31T09:29:33.442Z,4.50
2022-10-31T09:32:05.096Z,5.20
2022-10-31T09:34:41.502Z,4.90
2022-10-31T09:37:19.791Z,6.00
2022-10-31T09:39:50.287Z,4.20
2022-10-31T09:42:49.479Z,3.95
2022-10-31T09:45:30.553Z,4.00
2022-10-31T09:48:22.946Z,3.88
2022-10-31T09:51:13.062Z,5.13
2022-10-31T09:54:10.843Z,4.82
2022-10-31T09:56:42.141Z,4.45
2022-10-31T09:59:29.119Z,3.90
2022-10-31T10:02:10.177Z,4.20
2022-10-31T10:04:51.878Z,4.35
2022-10-31T10:07:32.795Z,3.80
2022-10-31T10:10:46.944Z,4.13
2022-10-31T10:14:01.835Z,4.10
2022-10-31T10:16:47.553Z,4.82
2022-10-31T10:19:29.777Z,4.05
2022-10-31T10:22:10.159Z,3.60
2022-10-31T10:24:58.708Z,3.25
2022-10-31T10:27:45.729Z,3.78
2022-10-31T10:30:19.880Z,4.70
2022-10-31T10:32:54.098Z,3.07
2022-10-31T10:35:29.968Z,3.70
2022-10-31T10:38:06.651Z,3.28
2022-10-31T10:40:37.160Z,3.95
2022-10-31T10:43:25.026Z,2.95
2022-10-31T10:46:19.900Z,3.08
2022-10-31T10:48:57.440Z,3.60
2022-10-31T10:54:49.844Z,3.00
2022-10-31T10:57:40.462Z,3.00
2022-10-31T11:00:23.022Z,2.75
2022-10-31T11:02:53.951Z,3.60
2022-10-31T11:05:32.176Z,2.67
2022-10-31T11:08:02.688Z,2.90
2022-10-31T11:10:33.457Z,3.45
2022-10-31T11:13:27.646Z,2.53
2022-10-31T11:16:04.309Z,2.60
2022-10-31T11:18:36.685Z,2.58
2022-10-31T11:21:08.577Z,2.58
2022-10-31T11:23:39.401Z,2.70
2022-10-31T11:26:22.924Z,2.42
2022-10-31T11:29:03.417Z,3.20
2022-10-31T11:31:38.829Z,2.67
2022-10-31T11:34:18.051Z,3.00
2022-10-31T11:36:48.918Z,2.90
2022-10-31T11:39:23.989Z,3.60
2022-10-31T11:41:56.433Z,3.60
2022-10-31T11:44:30.117Z,2.92
2022-10-31T11:47:04.911Z,3.70
2022-10-31T11:52:10.738Z,2.90
2022-10-31T11:54:46.498Z,2.67
2022-10-31T11:57:31.481Z,3.15
2022-10-31T12:00:04.588Z,3.30
2022-10-31T12:02:45.484Z,2.90
2022-10-31T12:05:23.771Z,3.08
2022-10-31T12:07:54.423Z,2.40
2022-10-31T12:10:31.671Z,2.50
2022-10-31T12:13:12.901Z,2.42
2022-10-31T12:15:54.134Z,3.03
2022-10-31T12:18:55.157Z,2.65
2022-10-31T12:21:40.598Z,2.80
2022-10-31T12:24:22.909Z,2.55
2022-10-31T12:27:04.015Z,2.58
2022-10-31T12:29:59.998Z,3.00
2022-10-31T12:32:41.185Z,2.30
2022-10-31T12:35:37.591Z,2.47
2022-10-31T12:38:27.705Z,2.42
2022-10-31T12:41:27.819Z,2.42
2022-10-31T12:44:05.899Z,3.17
2022-10-31T12:46:56.531Z,2.75
2022-10-31T12:49:43.051Z,3.47
2022-10-31T12:52:50.950Z,2.33
2022-10-31T12:55:37.149Z,2.75
2022-10-31T12:58:13.077Z,2.83
2022-10-31T13:00:48.344Z,3.85
2022-10-31T13:03:29.188Z,3.17
2022-10-31T13:06:07.418Z,2.70
2022-10-31T13:08:47.469Z,2.70
2022-10-31T13:11:21.976Z,2.80
2022-10-31T13:14:00.515Z,2.60
2022-10-31T13:16:43.528Z,2.17
2022-10-31T13:19:20.363Z,3.42
2022-10-31T13:22:01.263Z,2.50
2022-10-31T13:24:38.157Z,3.15
2022-10-31T13:27:17.167Z,2.30
2022-10-31T13:29:57.602Z,3.05
2022-10-31T13:32:30.806Z,2.30
2022-10-31T13:35:03.750Z,3.67
2022-10-31T13:37:39.260Z,2.97
2022-10-31T13:40:21.982Z,3.35
2022-10-31T13:43:03.018Z,3.97
2022-10-31T13:45:33.744Z,3.50
2022-10-31T13:48:05.518Z,2.75
2022-10-31T13:50:37.273Z,2.72
2022-10-31T13:53:22.848Z,3.22
2022-10-31T13:56:14.156Z,3.17
2022-10-31T13:59:04.534Z,3.30
2022-10-31T14:01:36.760Z,3.35
2022-10-31T14:04:14.878Z,3.88
2022-10-31T14:06:54.091Z,5.60
2022-10-31T14:09:34.876Z,3.90
2022-10-31T14:12:11.964Z,3.95
2022-10-31T14:14:53.171Z,3.85
2022-10-31T14:17:28.024Z,4.15
2022-10-31T14:20:07.383Z,3.97
2022-10-31T14:22:42.378Z,4.38
2022-10-31T14:25:35.571Z,4.28
2022-10-31T14:28:24.068Z,4.45
2022-10-31T14:30:59.219Z,5.57
2022-10-31T14:33:31.482Z,6.05
2022-10-31T14:36:08.127Z,6.35
2022-10-31T14:38:57.138Z,4.57
2022-10-31T14:41:48.393Z,4.93
2022-10-31T14:44:48.921Z,3.95
2022-10-31T14:47:32.739Z,3.90
2022-10-31T14:50:23.518Z,4.03
2022-10-31T14:52:57.612Z,4.47
2022-10-31T14:55:30.339Z,5.03
2022-10-31T14:58:03.431Z,4.15
2022-10-31T15:00:39.207Z,4.00
2022-10-31T15:03:18.834Z,4.10
2022-10-31T15:05:54.357Z,5.10
2022-10-31T15:08:36.087Z,5.32
2022-10-31T15:11:17.379Z,4.50
2022-10-31T15:13:49.897Z,5.38
2022-10-31T15:16:25.798Z,4.78
2022-10-31T15:18:58.767Z,5.20
2022-10-31T15:21:31.879Z,5.20
2022-10-31T15:24:04.560Z,5.88
2022-10-31T15:26:41.691Z,5.78
2022-10-31T15:29:17.350Z,6.13
2022-10-31T15:31:57.715Z,6.82
2022-10-31T15:34:34.100Z,7.15
2022-10-31T15:37:05.074Z,8.30
2022-10-31T15:39:36.111Z,6.60
2022-10-31T15:42:07.069Z,7.82
2022-10-31T15:44:40.082Z,8.90
2022-10-31T15:47:20.727Z,9.77
2022-10-31T15:49:54.785Z,10.40
2022-10-31T15:52:35.129Z,21.27
2022-10-31T15:55:09.471Z,12.10
2022-10-31T15:57:45.933Z,9.35
2022-10-31T16:00:28.538Z,10.73
2022-10-31T16:03:27.065Z,8.93
2022-10-31T16:05:59.979Z,11.88
2022-10-31T16:08:37.484Z,14.95
2022-10-31T16:11:24.857Z,12.88
2022-10-31T16:14:02.168Z,12.73
2022-10-31T16:16:36.282Z,15.20
2022-10-31T16:19:20.062Z,14.00
2022-10-31T16:21:53.272Z,12.25
2022-10-31T16:24:28.840Z,15.98
2022-10-31T16:27:06.167Z,15.65
2022-10-31T16:29:46.018Z,17.92
2022-10-31T16:32:31.036Z,16.30
2022-10-31T16:35:20.417Z,13.68
2022-10-31T16:37:50.905Z,10.13
2022-10-31T16:40:21.921Z,9.00
2022-10-31T16:42:52.768Z,11.18
2022-10-31T16:45:25.116Z,12.27
2022-10-31T16:47:56.025Z,15.27
2022-10-31T16:50:30.955Z,18.13
2022-10-31T16:53:13.394Z,20.10
2022-10-31T16:55:48.510Z,20.27
2022-10-31T16:58:23.141Z,19.67
2022-10-31T17:00:54.131Z,19.88
2022-10-31T17:03:24.722Z,19.92
2022-10-31T17:05:58.561Z,16.88
2022-10-31T17:08:29.456Z,14.95
2022-10-31T17:11:01.876Z,15.02
2022-10-31T17:13:34.785Z,11.77
2022-10-31T17:16:07.938Z,11.60
2022-10-31T17:18:38.398Z,11.63
2022-10-31T17:21:20.374Z,11.27
2022-10-31T17:23:50.846Z,11.20
2022-10-31T17:26:21.781Z,12.75
2022-10-31T17:28:52.451Z,10.63
2022-10-31T17:31:26.546Z,10.25
2022-10-31T17:34:02.121Z,10.52
2022-10-31T17:36:38.401Z,10.48
2022-10-31T17:39:09.865Z,10.68
2022-10-31T17:41:40.403Z,11.75
2022-10-31T17:44:13.814Z,11.20
2022-10-31T17:46:44.351Z,11.88
2022-10-31T17:49:14.919Z,11.98
2022-10-31T17:51:48.000Z,12.10
2022-10-31T17:54:22.961Z,12.32
2022-10-31T17:56:53.367Z,12.68
2022-10-31T17:59:23.863Z,12.52
2022-10-31T18:01:54.493Z,13.75
2022-10-31T18:04:25.363Z,13.57
2022-10-31T18:06:58.477Z,13.13
2022-10-31T18:09:29.128Z,12.35
2022-10-31T18:11:59.893Z,11.32
2022-10-31T18:14:31.126Z,11.65
2022-10-31T18:17:01.614Z,11.20
2022-10-31T18:19:32.370Z,11.02
2022-10-31T18:22:05.508Z,10.52
2022-10-31T18:24:36.227Z,11.80
2022-10-31T18:27:07.036Z,11.35
2022-10-31T18:29:37.831Z,11.27
2022-10-31T18:32:09.820Z,10.70
2022-10-31T18:34:40.526Z,11.40
2022-10-31T18:37:13.649Z,12.20
2022-10-31T18:39:44.203Z,10.00
2022-10-31T18:42:14.758Z,10.75
2022-10-31T18:44:45.322Z,11.68
2022-10-31T18:47:15.869Z,14.50
2022-10-31T18:49:46.475Z,10.40
2022-10-31T18:52:19.606Z,9.95
2022-10-31T18:54:50.285Z,10.68
2022-10-31T18:57:20.805Z,9.73
2022-10-31T18:59:51.352Z,8.98
2022-10-31T19:02:21.967Z,8.73
2022-10-31T19:04:52.658Z,9.40
2022-10-31T19:07:26.088Z,8.68
2022-10-31T19:09:56.988Z,9.00
2022-10-31T19:12:27.570Z,8.27
2022-10-31T19:14:58.189Z,8.02
2022-10-31T19:17:29.082Z,9.13
2022-10-31T19:19:59.660Z,9.75
2022-10-31T19:22:34.330Z,8.23
2022-10-31T19:25:07.656Z,9.20
2022-10-31T19:27:42.505Z,9.35
2022-10-31T19:30:15.034Z,7.97
2022-10-31T19:32:45.836Z,7.75
2022-10-31T19:35:16.906Z,8.70
2022-10-31T19:37:50.102Z,9.38
2022-10-31T19:40:20.833Z,9.10
2022-10-31T19:42:51.217Z,8.73
2022-10-31T19:45:21.745Z,7.63
2022-10-31T19:47:52.276Z,8.52
2022-10-31T19:50:23.009Z,7.82
2022-10-31T19:52:56.225Z,8.45
2022-10-31T19:55:26.791Z,7.45
2022-10-31T19:58:11.989Z,8.15
2022-10-31T20:00:43.297Z,9.30
2022-10-31T20:03:17.141Z,7.60
2022-10-31T20:05:50.909Z,7.75
2022-10-31T20:08:24.718Z,7.95
2022-10-31T20:10:58.741Z,6.90
2022-10-31T20:13:29.423Z,7.70
2022-10-31T20:16:02.853Z,7.75
2022-10-31T20:18:33.862Z,8.18
2022-10-31T20:21:06.134Z,7.63
2022-10-31T20:23:39.919Z,7.55
2022-10-31T20:26:13.284Z,7.43
2022-10-31T20:28:44.224Z,8.07
2022-10-31T20:31:18.038Z,8.20
2022-10-31T20:33:48.581Z,7.90
2022-10-31T20:36:21.343Z,7.20
2022-10-31T20:38:55.404Z,7.10
2022-10-31T20:41:25.962Z,8.15
2022-10-31T20:43:56.578Z,7.97
2022-10-31T20:46:29.089Z,9.18
2022-10-31T20:48:59.687Z,9.57
2022-10-31T20:51:31.984Z,8.65
2022-10-31T20:54:06.968Z,8.80
2022-10-31T20:56:37.589Z,7.65
2022-10-31T20:59:10.122Z,8.25
2022-10-31T21:01:40.711Z,7.90
2022-10-31T21:04:12.222Z,9.10
2022-10-31T21:06:48.144Z,8.40
2022-10-31T21:09:22.403Z,7.88
2022-10-31T21:11:53.105Z,9.48
2022-10-31T21:14:24.162Z,8.68
2022-10-31T21:16:54.733Z,7.72
2022-10-31T21:19:25.262Z,7.50
2022-10-31T21:21:55.771Z,8.07
2022-10-31T21:24:29.206Z,8.15
2022-10-31T21:27:02.590Z,8.48
2022-10-31T21:29:33.425Z,7.90
2022-10-31T21:32:03.952Z,8.40
2022-10-31T21:34:34.658Z,8.05
2022-10-31T21:37:06.204Z,8.77
2022-10-31T21:39:40.332Z,8.23
2022-10-31T21:42:10.979Z,8.32
2022-10-31T21:44:41.488Z,7.53
2022-10-31T21:47:12.018Z,7.10
2022-10-31T21:49:42.493Z,8.40
2022-10-31T21:52:13.548Z,8.05
2022-10-31T21:54:44.115Z,7.50
2022-10-31T21:57:14.724Z,7.63
2022-10-31T21:59:48.701Z,8.52
2022-10-31T22:02:19.344Z,7.40
2022-10-31T22:04:51.165Z,8.15
2022-10-31T22:07:21.708Z,7.47
2022-10-31T22:09:56.306Z,7.65
2022-10-31T22:12:28.388Z,7.78
2022-10-31T22:15:00.915Z,8.25
2022-10-31T22:17:33.052Z,10.60
2022-10-31T22:20:06.186Z,7.07
2022-10-31T22:22:39.322Z,7.78
2022-10-31T22:25:14.767Z,6.75
2022-10-31T22:27:47.106Z,7.03
2022-10-31T22:30:19.299Z,6.55
2022-10-31T22:32:51.946Z,6.90
2022-10-31T22:35:24.974Z,6.90
2022-10-31T22:37:58.803Z,6.50
2022-10-31T22:40:37.043Z,7.07
2022-10-31T22:43:10.731Z,6.05
2022-10-31T22:45:43.824Z,6.18
2022-10-31T22:48:17.499Z,6.35
2022-10-31T22:50:48.991Z,6.45
2022-10-31T22:53:22.125Z,8.68
2022-10-31T22:55:57.446Z,7.13
2022-10-31T22:58:30.758Z,6.78
2022-10-31T23:01:04.332Z,6.78
2022-10-31T23:03:39.136Z,7.22
2022-10-31T23:06:17.282Z,5.80
2022-10-31T23:08:51.170Z,5.93
2022-10-31T23:11:29.163Z,6.22
2022-10-31T23:14:15.659Z,5.78
2022-10-31T23:19:23.494Z,5.65
2022-10-31T23:22:00.541Z,5.60
2022-10-31T23:24:39.151Z,5.35
2022-10-31T23:27:17.169Z,6.07
2022-10-31T23:29:51.142Z,6.10
2022-10-31T23:32:26.453Z,5.40
2022-10-31T23:35:00.567Z,6.13
2022-10-31T23:37:37.584Z,5.38
2022-10-31T23:40:11.244Z,5.13
2022-10-31T23:42:45.616Z,5.13
2022-10-31T23:45:17.881Z,5.28
2022-10-31T23:47:52.246Z,5.40
2022-10-31T23:50:24.871Z,4.83
2022-10-31T23:52:58.554Z,4.78
2022-10-31T23:55:31.016Z,5.65
2022-10-31T23:58:06.392Z,5.15
